Time;durP1;ratioP1;P1;durP2;ratioP2;P2;SDS_P1;SDS_P2;PMS_P1;PMS_P2;Temp;Humidity;BMP_temperature;BMP_pressure;BME280_temperature;BME280_humidity;BME280_pressure;Samples;Min_cycle;Max_cycle;Signal;HPM_P1;HPM_P2
2023/03/17 00:01:13;;;;;;;0.40;0.40;;;4.20;94.00;;;;;;5036355;28;20185;-69
2023/03/17 00:03:41;;;;;;;0.50;0.50;;;4.00;93.90;;;;;;5036201;28;20405;-68
2023/03/17 00:06:20;;;;;;;0.40;0.40;;;3.90;93.30;;;;;;5036069;28;20255;-68
2023/03/17 00:08:46;;;;;;;0.40;0.40;;;4.10;93.00;;;;;;5036564;28;20622;-69
2023/03/17 00:11:14;;;;;;;1.00;0.77;;;4.00;93.30;;;;;;5036237;28;20276;-69
2023/03/17 00:13:41;;;;;;;0.40;0.40;;;4.00;93.90;;;;;;5036008;28;20449;-68
2023/03/17 00:16:16;;;;;;;0.40;0.40;;;4.10;94.20;;;;;;5035944;28;20171;-69
2023/03/17 00:18:42;;;;;;;5.18;2.47;;;4.10;93.50;;;;;;5036011;28;20171;-68
2023/03/17 00:21:16;;;;;;;0.93;0.93;;;4.10;93.00;;;;;;5035876;28;20191;-68
2023/03/17 00:23:48;;;;;;;0.40;0.40;;;4.20;93.00;;;;;;5036053;28;20158;-69
2023/03/17 00:26:14;;;;;;;0.70;0.70;;;4.10;92.80;;;;;;5035815;28;20201;-69
2023/03/17 00:28:39;;;;;;;0.40;0.40;;;4.10;92.90;;;;;;5035956;28;20167;-69
2023/03/17 00:31:14;;;;;;;0.70;0.70;;;4.10;93.10;;;;;;5035698;28;20628;-69
2023/03/17 00:33:40;;;;;;;0.40;0.40;;;4.00;93.50;;;;;;5035874;28;20250;-69
2023/03/17 00:36:12;;;;;;;0.50;0.50;;;4.00;94.00;;;;;;5035696;28;20174;-69
2023/03/17 00:38:38;;;;;;;0.40;0.40;;;4.00;94.20;;;;;;5035478;28;20163;-69
2023/03/17 00:41:05;;;;;;;0.40;0.40;;;4.10;94.30;;;;;;5034607;28;20167;-69
2023/03/17 00:43:31;;;;;;;1.30;1.20;;;4.10;94.10;;;;;;5035398;28;20199;-68
2023/03/17 00:45:57;;;;;;;0.68;0.68;;;4.10;93.90;;;;;;5035512;28;20167;-68
2023/03/17 00:48:23;;;;;;;0.40;0.40;;;4.20;93.60;;;;;;5035665;28;20588;-69
2023/03/17 00:50:49;;;;;;;0.30;0.30;;;4.20;93.50;;;;;;5035262;28;20195;-68
2023/03/17 00:53:17;;;;;;;0.80;0.80;;;4.10;94.00;;;;;;5035204;28;20477;-68
2023/03/17 00:55:44;;;;;;;0.40;0.40;;;4.20;94.10;;;;;;5035005;28;20193;-68
2023/03/17 00:58:25;;;;;;;0.40;0.40;;;4.20;93.70;;;;;;5035233;28;20175;-69
2023/03/17 01:00:52;;;;;;;0.30;0.30;;;4.20;93.30;;;;;;5035291;28;20198;-68
2023/03/17 01:03:18;;;;;;;0.70;0.70;;;4.30;93.20;;;;;;5035300;28;20206;-68
2023/03/17 01:05:45;;;;;;;0.40;0.40;;;4.30;93.20;;;;;;5035212;28;20182;-68
2023/03/17 01:08:11;;;;;;;0.40;0.40;;;4.40;93.30;;;;;;5034988;28;20217;-67
2023/03/17 01:10:38;;;;;;;0.82;0.82;;;4.40;93.30;;;;;;5035659;28;20186;-68
2023/03/17 01:13:05;;;;;;;0.50;0.50;;;4.40;93.20;;;;;;5017029;28;20210;-68
2023/03/17 01:15:32;;;;;;;0.50;0.50;;;4.40;93.30;;;;;;5035129;28;20163;-67
2023/03/17 01:17:59;;;;;;;0.40;0.40;;;4.50;93.30;;;;;;5034883;28;20167;-68
2023/03/17 01:20:31;;;;;;;0.50;0.50;;;4.40;93.50;;;;;;5034725;28;20202;-68
2023/03/17 01:22:57;;;;;;;0.40;0.40;;;4.40;94.00;;;;;;5034893;28;20187;-68
2023/03/17 01:25:24;;;;;;;0.60;0.60;;;4.40;94.20;;;;;;5034932;28;20250;-68
2023/03/17 01:27:49;;;;;;;0.40;0.40;;;4.40;94.20;;;;;;5034635;28;20162;-68
2023/03/17 01:30:20;;;;;;;1.27;0.97;;;4.30;93.80;;;;;;5034678;28;20187;-68
2023/03/17 01:32:46;;;;;;;0.60;0.60;;;4.30;93.70;;;;;;5034594;28;20285;-68
2023/03/17 01:35:13;;;;;;;0.40;0.40;;;4.30;93.80;;;;;;5034587;28;20294;-68
2023/03/17 01:37:39;;;;;;;0.40;0.40;;;4.20;94.30;;;;;;5034303;28;20194;-68
2023/03/17 01:40:08;;;;;;;0.68;0.68;;;4.20;94.50;;;;;;5034825;28;20189;-68
2023/03/17 01:42:34;;;;;;;0.40;0.40;;;4.30;94.40;;;;;;5016879;28;20261;-68
2023/03/17 01:45:06;;;;;;;0.30;0.30;;;4.40;94.30;;;;;;5034487;28;20266;-68
2023/03/17 01:47:32;;;;;;;0.38;0.38;;;4.40;93.80;;;;;;5034063;28;20257;-68
2023/03/17 01:50:08;;;;;;;0.50;0.50;;;4.30;93.90;;;;;;5034147;28;20207;-67
2023/03/17 01:52:37;;;;;;;0.40;0.40;;;4.40;93.90;;;;;;5033979;28;20421;-68
2023/03/17 01:55:07;;;;;;;0.40;0.40;;;4.50;93.80;;;;;;5034177;28;20179;-68
2023/03/17 01:57:45;;;;;;;0.40;0.40;;;4.40;93.80;;;;;;5034088;28;20182;-67
2023/03/17 02:00:15;;;;;;;0.40;0.40;;;4.30;94.10;;;;;;5034389;28;20167;-68
2023/03/17 02:02:49;;;;;;;0.40;0.40;;;4.20;94.50;;;;;;5034025;28;20270;-68
2023/03/17 02:05:21;;;;;;;0.40;0.40;;;4.30;94.50;;;;;;5034255;28;20330;-67
2023/03/17 02:07:47;;;;;;;0.40;0.40;;;4.40;94.10;;;;;;5033297;28;20193;-68
2023/03/17 02:10:15;;;;;;;0.40;0.40;;;4.20;94.10;;;;;;5034010;28;20174;-68
2023/03/17 02:12:42;;;;;;;2.15;1.13;;;4.20;94.50;;;;;;5033874;28;20233;-67
2023/03/17 02:15:09;;;;;;;0.57;0.57;;;4.30;94.60;;;;;;5033953;28;20174;-68
2023/03/17 02:17:36;;;;;;;0.40;0.40;;;4.50;94.20;;;;;;5033701;28;20179;-68
2023/03/17 02:20:16;;;;;;;0.40;0.40;;;4.60;93.70;;;;;;5033774;28;20178;-68
2023/03/17 02:22:51;;;;;;;0.50;0.50;;;4.60;93.40;;;;;;5033613;28;20198;-67
2023/03/17 02:25:18;;;;;;;0.95;0.95;;;4.70;93.60;;;;;;5033866;28;20261;-68
2023/03/17 02:27:48;;;;;;;0.38;0.38;;;4.70;93.00;;;;;;5033476;28;20162;-68
2023/03/17 02:30:18;;;;;;;1.02;0.80;;;4.80;92.90;;;;;;5033601;28;20183;-68
2023/03/17 02:32:43;;;;;;;0.40;0.40;;;4.80;92.70;;;;;;5033393;28;20191;-68
2023/03/17 02:35:10;;;;;;;0.40;0.40;;;4.80;92.90;;;;;;5033716;28;20167;-68
2023/03/17 02:37:36;;;;;;;0.40;0.40;;;4.80;93.00;;;;;;5033185;28;20541;-68
2023/03/17 02:40:04;;;;;;;0.30;0.30;;;4.90;92.70;;;;;;5033411;28;20257;-67
2023/03/17 02:42:30;;;;;;;0.55;0.55;;;4.90;92.70;;;;;;5033539;28;20183;-68
2023/03/17 02:44:56;;;;;;;0.68;0.68;;;4.90;92.40;;;;;;5033359;28;20197;-68
2023/03/17 02:47:22;;;;;;;0.40;0.40;;;5.00;92.60;;;;;;5033118;28;20175;-68
2023/03/17 02:49:48;;;;;;;11.37;0.80;;;5.00;93.10;;;;;;5033358;28;20289;-68
2023/03/17 02:52:14;;;;;;;9.65;2.35;;;5.00;93.40;;;;;;5033290;28;20214;-68
2023/03/17 02:54:40;;;;;;;0.40;0.40;;;4.80;93.60;;;;;;5033174;28;20724;-68
2023/03/17 02:57:07;;;;;;;1.53;1.43;;;5.00;93.70;;;;;;5033128;28;20410;-67
2023/03/17 02:59:33;;;;;;;0.40;0.40;;;4.90;93.30;;;;;;5033275;28;20172;-68
2023/03/17 03:01:59;;;;;;;0.40;0.40;;;4.90;93.30;;;;;;5033255;28;20193;-68
2023/03/17 03:04:26;;;;;;;0.32;0.32;;;5.00;93.10;;;;;;5033201;28;20635;-68
2023/03/17 03:06:52;;;;;;;0.40;0.40;;;5.00;92.60;;;;;;5033028;28;20186;-68
2023/03/17 03:09:19;;;;;;;0.50;0.50;;;4.90;92.70;;;;;;5033307;28;20224;-68
2023/03/17 03:11:46;;;;;;;0.50;0.50;;;4.80;93.30;;;;;;5033073;28;20203;-68
2023/03/17 03:14:13;;;;;;;0.95;0.85;;;4.70;93.80;;;;;;5033102;28;20710;-68
2023/03/17 03:16:38;;;;;;;1.23;1.13;;;4.80;93.70;;;;;;5032884;28;20179;-67
2023/03/17 03:19:04;;;;;;;0.40;0.40;;;4.70;93.30;;;;;;5035141;28;20250;-68
2023/03/17 03:21:31;;;;;;;0.30;0.30;;;4.70;93.00;;;;;;5037060;28;20717;-68
2023/03/17 03:23:56;;;;;;;0.40;0.40;;;4.80;92.90;;;;;;5036935;28;20544;-67
2023/03/17 03:26:22;;;;;;;1.33;0.70;;;4.80;93.20;;;;;;5037078;28;20171;-68
2023/03/17 03:28:48;;;;;;;0.60;0.57;;;4.80;93.20;;;;;;5036998;28;20179;-67
2023/03/17 03:31:13;;;;;;;0.50;0.50;;;4.80;93.10;;;;;;5036855;28;20187;-68
2023/03/17 03:33:40;;;;;;;0.30;0.30;;;4.80;92.90;;;;;;5036776;28;20918;-68
2023/03/17 03:36:07;;;;;;;1.27;1.25;;;4.70;93.40;;;;;;5036638;28;20167;-68
2023/03/17 03:38:33;;;;;;;0.50;0.50;;;4.60;93.80;;;;;;5036743;28;20197;-68
2023/03/17 03:40:59;;;;;;;0.85;0.85;;;4.60;94.00;;;;;;5018842;28;20631;-67
2023/03/17 03:43:24;;;;;;;0.50;0.50;;;4.60;93.70;;;;;;5036653;28;20345;-68
2023/03/17 03:45:51;;;;;;;0.30;0.30;;;4.60;93.40;;;;;;5036593;28;20185;-68
2023/03/17 03:48:17;;;;;;;0.68;0.68;;;4.60;92.80;;;;;;5036838;28;20178;-67
2023/03/17 03:50:43;;;;;;;0.33;0.33;;;4.60;92.90;;;;;;5036724;28;20546;-68
2023/03/17 03:53:08;;;;;;;0.80;0.60;;;4.60;93.30;;;;;;5036531;28;20437;-68
2023/03/17 03:55:34;;;;;;;0.33;0.33;;;4.60;93.70;;;;;;5036444;28;20171;-67
2023/03/17 03:58:00;;;;;;;0.50;0.50;;;4.50;93.50;;;;;;5018601;28;20261;-68
2023/03/17 04:00:26;;;;;;;1.43;0.70;;;4.50;93.60;;;;;;5036452;28;20754;-68
2023/03/17 04:02:52;;;;;;;0.40;0.40;;;4.50;93.70;;;;;;5036204;28;20205;-68
2023/03/17 04:05:18;;;;;;;0.40;0.40;;;4.60;93.50;;;;;;5036427;28;20451;-68
2023/03/17 04:07:45;;;;;;;0.40;0.40;;;4.70;92.80;;;;;;5036033;28;20663;-68
2023/03/17 04:10:11;;;;;;;0.82;0.82;;;4.70;92.90;;;;;;5036153;28;20182;-68
2023/03/17 04:12:38;;;;;;;0.60;0.60;;;4.60;92.90;;;;;;5035925;28;20201;-68
2023/03/17 04:15:05;;;;;;;0.40;0.40;;;4.50;93.30;;;;;;5036298;28;20214;-68
2023/03/17 04:17:31;;;;;;;0.57;0.57;;;4.40;93.70;;;;;;5035755;28;20170;-68
2023/03/17 04:19:57;;;;;;;0.50;0.50;;;4.30;94.10;;;;;;5036080;28;20178;-68
2023/03/17 04:22:23;;;;;;;0.40;0.40;;;4.30;94.30;;;;;;5035820;28;20201;-68
2023/03/17 04:24:49;;;;;;;0.50;0.50;;;4.30;94.30;;;;;;5035909;28;20174;-68
2023/03/17 04:27:15;;;;;;;0.40;0.40;;;4.30;93.80;;;;;;5035831;28;20409;-68
2023/03/17 04:29:41;;;;;;;0.40;0.40;;;4.40;93.70;;;;;;5035464;28;20245;-68
2023/03/17 04:32:07;;;;;;;0.32;0.32;;;4.40;93.80;;;;;;5035462;28;20233;-67
2023/03/17 04:34:33;;;;;;;0.40;0.40;;;4.40;93.80;;;;;;5035784;28;20627;-68
2023/03/17 04:36:59;;;;;;;0.30;0.30;;;4.30;93.90;;;;;;5035650;28;20195;-68
2023/03/17 04:39:24;;;;;;;0.40;0.40;;;4.30;94.10;;;;;;5035853;28;20266;-67
2023/03/17 04:41:51;;;;;;;0.40;0.40;;;4.10;94.80;;;;;;5035502;28;20230;-68
2023/03/17 04:44:17;;;;;;;0.40;0.40;;;4.10;95.10;;;;;;5035405;28;20713;-68
2023/03/17 04:46:42;;;;;;;0.40;0.40;;;4.10;95.20;;;;;;5035477;28;20662;-68
2023/03/17 04:49:08;;;;;;;0.33;0.33;;;4.20;95.20;;;;;;5017819;28;20175;-68
2023/03/17 04:51:35;;;;;;;0.70;0.70;;;4.20;94.90;;;;;;5035564;28;20257;-69
2023/03/17 04:54:01;;;;;;;0.65;0.65;;;4.20;94.90;;;;;;5035162;28;20248;-68
2023/03/17 04:56:27;;;;;;;0.50;0.50;;;4.20;94.70;;;;;;5035002;28;20170;-68
2023/03/17 04:58:53;;;;;;;0.40;0.40;;;4.20;94.70;;;;;;5035453;28;20231;-68
2023/03/17 05:01:20;;;;;;;0.40;0.40;;;4.30;94.70;;;;;;5035315;28;20577;-68
2023/03/17 05:03:46;;;;;;;0.55;0.55;;;4.30;94.40;;;;;;5035094;28;20171;-68
2023/03/17 05:06:11;;;;;;;0.30;0.30;;;4.30;94.20;;;;;;5034981;28;20686;-68
2023/03/17 05:08:37;;;;;;;0.40;0.40;;;4.30;94.20;;;;;;5035270;28;20197;-68
2023/03/17 05:11:04;;;;;;;0.60;0.60;;;4.20;94.50;;;;;;5035019;28;20175;-68
2023/03/17 05:13:30;;;;;;;0.52;0.52;;;4.20;95.00;;;;;;5034895;28;20195;-68
2023/03/17 05:15:56;;;;;;;0.80;0.80;;;4.30;94.90;;;;;;5034897;28;20174;-68
2023/03/17 05:18:23;;;;;;;1.77;1.67;;;4.20;94.80;;;;;;5034981;28;20171;-67
2023/03/17 05:20:49;;;;;;;1.45;1.35;;;4.20;94.70;;;;;;5034825;28;20163;-68
2023/03/17 05:23:15;;;;;;;0.40;0.40;;;4.20;94.80;;;;;;5034803;28;20255;-68
2023/03/17 05:25:41;;;;;;;0.40;0.40;;;4.20;94.80;;;;;;5034956;28;20257;-68
2023/03/17 05:28:08;;;;;;;3.03;0.97;;;4.30;94.60;;;;;;5034670;28;20937;-68
2023/03/17 05:30:38;;;;;;;0.60;0.60;;;4.30;94.60;;;;;;5034831;28;20166;-68
2023/03/17 05:33:04;;;;;;;0.40;0.40;;;4.30;94.70;;;;;;5034358;28;20198;-68
2023/03/17 05:35:30;;;;;;;0.55;0.55;;;4.30;94.60;;;;;;5034548;28;20164;-68
2023/03/17 05:37:56;;;;;;;0.40;0.40;;;4.30;94.40;;;;;;5034398;28;20177;-67
2023/03/17 05:40:22;;;;;;;0.40;0.40;;;4.30;94.50;;;;;;5034568;28;20175;-67
2023/03/17 05:42:52;;;;;;;0.70;0.70;;;4.20;94.90;;;;;;5033191;28;20186;-68
2023/03/17 05:45:19;;;;;;;0.40;0.40;;;4.10;95.20;;;;;;5034483;28;20186;-68
2023/03/17 05:47:44;;;;;;;0.50;0.50;;;4.20;95.50;;;;;;5034190;28;20171;-68
2023/03/17 05:50:11;;;;;;;0.40;0.40;;;4.30;95.50;;;;;;5034333;28;20163;-68
2023/03/17 05:52:37;;;;;;;0.40;0.40;;;4.30;95.40;;;;;;5034064;28;20661;-67
2023/03/17 05:55:04;;;;;;;0.40;0.40;;;4.40;95.50;;;;;;5034607;28;20269;-68
2023/03/17 05:57:30;;;;;;;4.53;2.67;;;4.40;95.60;;;;;;5033988;28;20186;-68
2023/03/17 05:59:56;;;;;;;0.50;0.50;;;4.40;95.70;;;;;;5034241;28;20174;-67
2023/03/17 06:02:22;;;;;;;0.50;0.50;;;4.60;95.80;;;;;;5033979;28;20183;-68
2023/03/17 06:04:48;;;;;;;0.40;0.40;;;4.60;95.50;;;;;;5033968;28;20444;-68
2023/03/17 06:07:13;;;;;;;0.30;0.30;;;4.70;95.50;;;;;;5016141;28;20639;-67
2023/03/17 06:09:39;;;;;;;0.40;0.40;;;4.90;95.20;;;;;;5034120;28;20174;-68
2023/03/17 06:12:05;;;;;;;0.40;0.40;;;5.00;95.00;;;;;;5033973;28;20948;-67
2023/03/17 06:14:31;;;;;;;0.50;0.50;;;5.10;95.10;;;;;;5033691;28;20206;-68
2023/03/17 06:16:57;;;;;;;0.40;0.40;;;5.30;94.80;;;;;;5033671;28;20185;-68
2023/03/17 06:19:23;;;;;;;0.67;0.67;;;5.30;94.70;;;;;;5033876;28;20251;-67
2023/03/17 06:21:48;;;;;;;0.40;0.40;;;5.40;94.60;;;;;;5033691;28;20186;-68
2023/03/17 06:24:14;;;;;;;0.40;0.40;;;5.40;94.60;;;;;;5033701;28;20546;-68
2023/03/17 06:26:41;;;;;;;0.40;0.40;;;5.60;94.60;;;;;;5033599;28;20534;-68
2023/03/17 06:29:11;;;;;;;0.40;0.40;;;5.70;94.50;;;;;;5033689;28;20166;-68
2023/03/17 06:31:37;;;;;;;0.30;0.30;;;5.90;94.40;;;;;;5033523;28;20558;-68
2023/03/17 06:34:03;;;;;;;0.40;0.40;;;6.10;94.30;;;;;;5033516;28;20206;-67
2023/03/17 06:36:31;;;;;;;0.40;0.40;;;6.10;94.10;;;;;;5033505;28;20168;-68
2023/03/17 06:38:57;;;;;;;0.50;0.50;;;6.20;94.20;;;;;;5033551;28;20168;-68
2023/03/17 06:41:23;;;;;;;0.40;0.40;;;6.30;94.30;;;;;;5033487;28;20304;-68
2023/03/17 06:43:49;;;;;;;0.60;0.60;;;6.60;93.90;;;;;;5033225;28;20586;-68
2023/03/17 06:46:15;;;;;;;0.40;0.40;;;6.70;93.50;;;;;;5033249;28;20255;-68
2023/03/17 06:48:41;;;;;;;0.40;0.40;;;6.90;93.30;;;;;;5033428;28;20621;-68
2023/03/17 06:51:06;;;;;;;0.40;0.40;;;7.10;93.00;;;;;;5033265;28;20240;-68
2023/03/17 06:53:32;;;;;;;0.40;0.40;;;7.30;92.80;;;;;;5032920;28;20206;-68
2023/03/17 06:55:58;;;;;;;0.70;0.60;;;7.40;92.60;;;;;;5033242;28;20212;-68
2023/03/17 06:58:24;;;;;;;0.50;0.50;;;7.50;92.30;;;;;;5033199;28;20186;-68
2023/03/17 07:00:52;;;;;;;2.93;0.83;;;7.70;92.60;;;;;;5033176;28;20163;-68
2023/03/17 07:03:19;;;;;;;1.70;0.73;;;7.80;92.50;;;;;;5015537;28;20658;-68
2023/03/17 07:05:45;;;;;;;0.85;0.85;;;8.10;92.30;;;;;;5033071;28;20171;-68
2023/03/17 07:08:11;;;;;;;0.40;0.40;;;8.50;91.90;;;;;;5033343;28;20175;-68
2023/03/17 07:10:39;;;;;;;2.30;0.50;;;9.00;91.80;;;;;;5033121;28;20173;-69
2023/03/17 07:13:07;;;;;;;4.38;1.35;;;9.60;91.20;;;;;;5032866;28;20460;-68
2023/03/17 07:15:34;;;;;;;0.60;0.60;;;10.30;89.40;;;;;;5033468;28;20173;-68
2023/03/17 07:18:00;;;;;;;0.30;0.30;;;11.00;85.00;;;;;;5015164;28;20990;-68
2023/03/17 07:20:26;;;;;;;0.77;0.77;;;11.80;83.90;;;;;;5033019;28;20563;-69
2023/03/17 07:22:52;;;;;;;0.93;0.73;;;12.60;82.00;;;;;;5032691;28;20512;-69
2023/03/17 07:25:18;;;;;;;0.40;0.40;;;12.90;80.20;;;;;;5033123;28;20167;-68
2023/03/17 07:27:44;;;;;;;1.07;0.93;;;13.20;78.90;;;;;;5032742;28;20193;-68
2023/03/17 07:30:11;;;;;;;0.80;0.80;;;13.80;78.10;;;;;;5032919;28;20501;-69
2023/03/17 07:32:37;;;;;;;0.90;0.90;;;15.20;76.10;;;;;;5032820;28;20901;-69
2023/03/17 07:35:04;;;;;;;0.97;0.80;;;16.90;70.60;;;;;;5033161;28;20498;-69
2023/03/17 07:37:30;;;;;;;0.80;0.80;;;18.40;63.00;;;;;;5032774;28;20481;-69
2023/03/17 07:39:55;;;;;;;1.03;1.03;;;19.10;58.10;;;;;;5015296;28;20862;-69
2023/03/17 07:42:21;;;;;;;0.83;0.83;;;19.40;56.00;;;;;;5032732;28;20210;-69
2023/03/17 07:44:47;;;;;;;0.40;0.40;;;19.60;55.00;;;;;;5032826;28;20526;-69
2023/03/17 07:47:13;;;;;;;1.13;1.13;;;19.30;54.30;;;;;;5032606;28;20213;-69
2023/03/17 07:49:39;;;;;;;0.80;0.80;;;19.50;54.20;;;;;;5032939;28;20219;-70
2023/03/17 07:52:07;;;;;;;0.43;0.43;;;20.00;53.10;;;;;;5032664;28;20429;-69
2023/03/17 07:54:33;;;;;;;0.83;0.83;;;20.80;50.50;;;;;;5032648;28;20915;-69
2023/03/17 07:56:58;;;;;;;1.27;0.80;;;21.40;48.90;;;;;;5032482;28;20406;-70
2023/03/17 07:59:24;;;;;;;0.80;0.80;;;21.60;48.20;;;;;;5032950;28;20397;-70
2023/03/17 08:01:49;;;;;;;2.00;1.73;;;22.30;47.60;;;;;;5032567;28;20194;-69
2023/03/17 08:04:15;;;;;;;2.80;2.27;;;23.50;45.70;;;;;;5032830;28;20206;-70
2023/03/17 08:06:41;;;;;;;3.00;1.57;;;24.60;43.40;;;;;;5035316;28;20206;-70
2023/03/17 08:09:09;;;;;;;2.50;1.60;;;25.40;41.40;;;;;;5036682;28;20178;-70
2023/03/17 08:11:36;;;;;;;1.70;1.60;;;26.10;40.30;;;;;;5036096;28;20918;-70
2023/03/17 08:14:03;;;;;;;1.00;0.80;;;27.00;39.10;;;;;;5036198;28;20964;-70
2023/03/17 08:16:29;;;;;;;1.47;1.10;;;27.70;36.90;;;;;;5035964;28;20536;-70
2023/03/17 08:18:57;;;;;;;0.90;0.80;;;28.20;35.50;;;;;;5036084;28;20902;-70
2023/03/17 08:21:25;;;;;;;1.27;0.83;;;28.70;35.90;;;;;;5035838;28;20434;-70
2023/03/17 08:23:51;;;;;;;0.40;0.40;;;29.30;33.80;;;;;;5035945;28;20906;-70
2023/03/17 08:26:17;;;;;;;0.40;0.40;;;29.80;33.40;;;;;;5035776;28;20409;-70
2023/03/17 08:28:43;;;;;;;0.87;0.87;;;30.20;33.60;;;;;;5035903;28;20512;-70
2023/03/17 08:31:18;;;;;;;0.70;0.50;;;30.70;32.40;;;;;;5035981;28;20502;-70
2023/03/17 08:33:49;;;;;;;1.30;0.77;;;31.10;31.60;;;;;;5035835;28;20529;-71
2023/03/17 08:36:17;;;;;;;0.60;0.60;;;31.40;31.40;;;;;;5035513;28;20413;-70
2023/03/17 08:38:45;;;;;;;3.83;2.20;;;32.30;29.60;;;;;;5035883;28;20405;-70
2023/03/17 08:41:13;;;;;;;1.60;1.37;;;33.00;28.60;;;;;;5035585;28;20402;-71
2023/03/17 08:43:41;;;;;;;0.73;0.70;;;33.40;28.80;;;;;;5035493;28;20476;-70
2023/03/17 08:46:17;;;;;;;0.63;0.60;;;33.50;27.00;;;;;;5035308;28;20825;-70
2023/03/17 08:48:45;;;;;;;1.23;1.07;;;33.40;27.10;;;;;;5035702;28;20409;-70
2023/03/17 08:51:12;;;;;;;0.87;0.60;;;33.30;27.50;;;;;;5035429;28;20456;-70
2023/03/17 08:53:39;;;;;;;0.50;0.50;;;33.30;27.40;;;;;;5035392;28;20408;-70
2023/03/17 08:56:05;;;;;;;0.40;0.40;;;33.40;27.00;;;;;;5035155;28;20410;-70
2023/03/17 08:58:33;;;;;;;0.40;0.40;;;33.60;26.70;;;;;;5035289;28;20398;-70
2023/03/17 09:00:59;;;;;;;1.23;0.83;;;33.70;25.50;;;;;;5035390;28;20410;-71
2023/03/17 09:03:26;;;;;;;1.67;1.10;;;33.80;26.30;;;;;;5035064;28;20445;-71
2023/03/17 09:05:52;;;;;;;0.60;0.60;;;33.90;25.60;;;;;;5034975;28;20409;-70
2023/03/17 09:08:18;;;;;;;0.53;0.53;;;33.80;25.10;;;;;;5035079;28;20898;-71
2023/03/17 09:10:46;;;;;;;0.40;0.40;;;33.60;25.70;;;;;;5035208;28;20167;-70
2023/03/17 09:13:12;;;;;;;0.63;0.60;;;33.70;25.40;;;;;;5034942;28;20329;-70
2023/03/17 09:15:37;;;;;;;2.10;0.50;;;33.50;25.80;;;;;;5017250;28;20414;-70
2023/03/17 09:18:04;;;;;;;0.33;0.30;;;33.00;25.90;;;;;;5034560;28;20430;-73
2023/03/17 09:20:30;;;;;;;0.60;0.60;;;32.40;26.50;;;;;;5034898;28;20177;-70
2023/03/17 09:22:56;;;;;;;0.40;0.40;;;31.50;27.00;;;;;;5034706;28;20863;-70
2023/03/17 09:25:22;;;;;;;0.60;0.60;;;30.90;26.90;;;;;;5034836;28;20584;-70
2023/03/17 09:27:48;;;;;;;0.80;0.47;;;30.40;27.70;;;;;;5034675;28;20167;-70
2023/03/17 09:30:15;;;;;;;0.50;0.40;;;30.20;27.80;;;;;;5034865;28;20413;-70
2023/03/17 09:32:41;;;;;;;0.53;0.53;;;29.80;27.70;;;;;;5034622;28;20273;-70
2023/03/17 09:35:07;;;;;;;0.53;0.40;;;29.40;27.10;;;;;;5034663;28;20402;-70
2023/03/17 09:37:33;;;;;;;0.60;0.50;;;28.70;27.70;;;;;;5034444;28;20824;-70
2023/03/17 09:39:59;;;;;;;0.97;0.87;;;27.70;28.40;;;;;;5034641;28;20405;-70
2023/03/17 09:42:32;;;;;;;0.93;0.50;;;26.70;28.80;;;;;;5034514;28;20186;-70
2023/03/17 09:45:05;;;;;;;0.50;0.40;;;26.00;29.30;;;;;;5034260;28;20961;-70
2023/03/17 09:47:48;;;;;;;1.27;0.50;;;25.50;29.40;;;;;;5034231;28;20405;-70
2023/03/17 09:50:24;;;;;;;0.40;0.40;;;25.00;29.30;;;;;;5034404;28;20398;-69
2023/03/17 09:52:51;;;;;;;0.30;0.30;;;24.60;29.40;;;;;;5034288;28;20456;-70
2023/03/17 09:55:28;;;;;;;0.40;0.40;;;24.30;29.00;;;;;;5034143;28;20898;-70
2023/03/17 09:57:55;;;;;;;0.40;0.40;;;23.50;29.20;;;;;;5034044;28;20814;-70
2023/03/17 10:00:28;;;;;;;0.40;0.40;;;22.90;30.00;;;;;;5034170;28;20381;-69
2023/03/17 10:02:57;;;;;;;0.40;0.40;;;22.50;30.20;;;;;;5016167;28;20920;-70
2023/03/17 10:05:26;;;;;;;0.30;0.30;;;22.40;30.30;;;;;;5016468;28;20384;-70
2023/03/17 10:08:05;;;;;;;0.40;0.40;;;22.70;29.80;;;;;;5033672;28;20778;-70
2023/03/17 10:10:30;;;;;;;0.40;0.40;;;23.20;30.50;;;;;;5033968;28;20390;-70
2023/03/17 10:13:21;;;;;;;0.50;0.50;;;24.10;29.00;;;;;;5016134;28;20419;-70
2023/03/17 10:16:07;;;;;;;0.50;0.50;;;24.90;28.80;;;;;;5033970;28;20163;-70
2023/03/17 10:18:47;;;;;;;0.60;0.57;;;25.60;29.00;;;;;;5033807;28;20802;-70
2023/03/17 10:21:22;;;;;;;1.00;0.50;;;26.10;28.40;;;;;;5033949;28;20928;-70
2023/03/17 10:23:49;;;;;;;1.23;0.40;;;26.30;26.30;;;;;;5033709;28;20464;-70
2023/03/17 10:26:39;;;;;;;0.40;0.40;;;25.90;26.00;;;;;;5033638;28;20405;-70
2023/03/17 10:29:14;;;;;;;0.43;0.43;;;25.30;25.90;;;;;;5032759;28;20801;-70
2023/03/17 10:31:40;;;;;;;0.40;0.40;;;25.20;26.90;;;;;;5033641;28;20423;-70
2023/03/17 10:34:13;;;;;;;1.63;0.40;;;24.90;27.40;;;;;;5033643;28;20384;-69
2023/03/17 10:36:50;;;;;;;0.60;0.40;;;24.00;27.20;;;;;;5033500;28;20242;-69
2023/03/17 10:39:21;;;;;;;0.40;0.40;;;23.30;27.60;;;;;;5033694;28;20398;-70
2023/03/17 10:41:57;;;;;;;0.40;0.40;;;22.80;27.60;;;;;;5033632;28;20452;-69
2023/03/17 10:44:47;;;;;;;0.47;0.40;;;22.50;28.20;;;;;;5033439;28;20482;-69
2023/03/17 10:47:19;;;;;;;0.40;0.40;;;22.50;27.50;;;;;;5033352;28;20415;-69
2023/03/17 10:49:45;;;;;;;0.37;0.37;;;22.70;27.30;;;;;;5015572;28;20420;-69
2023/03/17 10:52:22;;;;;;;0.60;0.60;;;22.40;27.10;;;;;;5033377;28;20538;-69
2023/03/17 10:54:52;;;;;;;0.30;0.30;;;22.20;27.70;;;;;;5033436;28;20752;-69
2023/03/17 10:57:18;;;;;;;0.30;0.30;;;21.80;27.30;;;;;;5033267;28;20473;-69
2023/03/17 10:59:51;;;;;;;0.47;0.47;;;21.40;27.90;;;;;;5033416;28;20782;-70
2023/03/17 11:02:29;;;;;;;0.30;0.30;;;21.40;28.20;;;;;;5033397;28;20423;-69
2023/03/17 11:05:02;;;;;;;0.33;0.30;;;21.30;28.50;;;;;;5033118;28;20449;-69
2023/03/17 11:07:38;;;;;;;0.40;0.40;;;21.30;28.30;;;;;;5033082;28;20424;-70
2023/03/17 11:10:16;;;;;;;0.50;0.50;;;21.30;27.90;;;;;;5033388;28;20486;-70
2023/03/17 11:12:42;;;;;;;0.40;0.40;;;21.60;28.50;;;;;;5033233;28;20432;-70
2023/03/17 11:15:18;;;;;;;0.50;0.50;;;21.70;28.10;;;;;;5033240;28;20410;-69
2023/03/17 11:17:59;;;;;;;0.80;0.53;;;21.40;27.90;;;;;;5033208;28;20765;-69
2023/03/17 11:20:38;;;;;;;0.50;0.50;;;21.10;28.20;;;;;;5033243;28;20401;-69
2023/03/17 11:23:22;;;;;;;0.30;0.30;;;21.10;28.50;;;;;;5033134;28;20429;-69
2023/03/17 11:25:57;;;;;;;0.40;0.40;;;21.00;29.00;;;;;;5032875;28;20413;-70
2023/03/17 11:28:39;;;;;;;0.30;0.30;;;20.90;28.50;;;;;;5033141;28;20805;-69
2023/03/17 11:31:14;;;;;;;0.30;0.30;;;20.60;29.30;;;;;;5033148;28;20391;-69
2023/03/17 11:33:53;;;;;;;0.30;0.30;;;20.30;28.30;;;;;;5032971;28;20406;-69
2023/03/17 11:36:28;;;;;;;0.40;0.40;;;20.00;28.60;;;;;;5015100;28;20867;-69
2023/03/17 11:39:04;;;;;;;0.30;0.30;;;19.80;28.40;;;;;;5033108;28;20405;-69
2023/03/17 11:41:45;;;;;;;1.60;0.50;;;19.80;28.80;;;;;;5036886;28;20436;-69
2023/03/17 11:44:22;;;;;;;0.60;0.40;;;20.00;29.40;;;;;;5036661;28;20484;-69
2023/03/17 11:47:06;;;;;;;0.40;0.40;;;20.40;28.80;;;;;;5036599;28;20486;-69
2023/03/17 11:49:36;;;;;;;0.30;0.30;;;20.40;27.90;;;;;;5036835;28;20409;-69
2023/03/17 11:52:28;;;;;;;0.37;0.37;;;19.80;28.10;;;;;;5036544;28;20425;-70
2023/03/17 11:55:13;;;;;;;0.30;0.30;;;19.40;29.10;;;;;;5036731;28;20535;-69
2023/03/17 11:57:57;;;;;;;0.40;0.40;;;19.30;28.80;;;;;;5035899;28;20436;-69
2023/03/17 12:00:35;;;;;;;0.30;0.30;;;19.20;29.30;;;;;;5036596;28;20451;-69
2023/03/17 12:03:06;;;;;;;0.57;0.40;;;19.20;28.60;;;;;;5018517;28;20479;-69
2023/03/17 12:05:33;;;;;;;0.40;0.40;;;19.10;28.90;;;;;;5036219;28;20402;-69
2023/03/17 12:08:23;;;;;;;0.40;0.40;;;19.10;29.00;;;;;;5036233;28;20436;-69
2023/03/17 12:10:54;;;;;;;0.40;0.40;;;19.40;29.20;;;;;;5018691;28;20420;-69
2023/03/17 12:13:29;;;;;;;0.47;0.47;;;19.50;29.40;;;;;;5036211;28;20440;-69
2023/03/17 12:16:10;;;;;;;1.33;0.40;;;19.50;29.10;;;;;;5036204;28;20396;-69
2023/03/17 12:18:49;;;;;;;0.30;0.30;;;19.50;27.90;;;;;;5036199;28;20436;-69
2023/03/17 12:21:21;;;;;;;0.30;0.30;;;19.40;27.20;;;;;;5036420;28;20420;-69
2023/03/17 12:23:51;;;;;;;0.50;0.50;;;19.20;27.10;;;;;;5035935;28;20490;-70
2023/03/17 12:26:31;;;;;;;0.30;0.30;;;19.20;27.70;;;;;;5036257;28;20483;-69
2023/03/17 12:29:01;;;;;;;0.60;0.60;;;19.40;28.50;;;;;;5036434;28;20395;-70
2023/03/17 12:31:35;;;;;;;0.43;0.40;;;19.60;29.80;;;;;;5035934;28;20458;-69
2023/03/17 12:34:14;;;;;;;0.40;0.40;;;19.70;29.80;;;;;;5018083;28;20422;-70
2023/03/17 12:36:41;;;;;;;0.50;0.47;;;19.80;29.50;;;;;;5017898;28;20417;-70
2023/03/17 12:39:12;;;;;;;0.50;0.50;;;19.80;30.00;;;;;;5035733;28;20409;-70
2023/03/17 12:42:35;;;;;;;0.40;0.40;;;19.60;31.00;;;;;;5035884;28;20802;-70
2023/03/17 12:45:37;;;;;;;0.30;0.30;;;19.60;31.70;;;;;;4974554;28;20557;-69
2023/03/17 12:48:38;;;;;;;0.30;0.30;;;19.50;32.10;;;;;;4967586;28;20794;-69
2023/03/17 12:51:48;;;;;;;0.30;0.30;;;19.30;30.00;;;;;;5031831;28;20447;-69
2023/03/17 12:54:20;;;;;;;0.30;0.30;;;19.00;30.00;;;;;;5035355;28;20409;-69
2023/03/17 12:56:48;;;;;;;0.30;0.30;;;19.10;30.30;;;;;;5035168;28;20928;-69
2023/03/17 12:59:20;;;;;;;0.40;0.40;;;19.20;29.90;;;;;;5035310;28;20905;-69
2023/03/17 13:01:57;;;;;;;0.30;0.30;;;19.20;29.50;;;;;;5017409;28;20493;-69
2023/03/17 13:04:34;;;;;;;0.40;0.40;;;19.30;29.80;;;;;;5035211;28;20509;-69